Portada
METAR-TAF:

METAR-TAF

Aeroports :

Saràtov, Rússia

latitud: 51-34-12N, longitud: 046-04-12E, altitud: 166 m

Observació

L'informe es va fer fa 29 minuts, a les 18:00 UTC
Vent 10 kt del Oest
Temperatura 24°C
Humitat 61%
Pressió 1012 hPa
Visibilitat 10 km o més
sense núvols per sota de 1500 mi sense presència de cumulonimbus.

METAR: UWSS 191800Z 28005MPS CAVOK 24/16 Q1012 R30/010095 NOSIG RMK QFE746

Hora: 21:29 (18:29 UTC)

Pronòstic

L'informe es va fer fa 1 hora i 29 minuts, a les 17:00 UTC
Pronòstic vàlid del 19 a les 18 UTC al 20 a les 03 UTC
Vent 6 kt del Oest amb ràfegues de 16 kt
Visibilitat 10 km o més
Núvols disperses a una alçada de 2000 ft
Cel ennuvolat a una alçada de 4000 ft
Temporalment
l' 19 a les 22 UTC al 20 a les 03 UTC
Visibilitat: 3100 m
Escasses núvols a una alçada de 600 ft
Núvols disperses a una alçada de 1100 ft
boirina

TAF: UWSS 191700Z 1918/2003 28003G08MPS 9999 SCT020 BKN040 TEMPO 1922/2003 3100 BR FEW006 SCT011

Observacions i pronòstics meteorològics de més de 4000 aeroports (METAR i TAF).

Les estacions disponibles són els punts grocs i vermells al mapa.

Posi el ratolí al punt desitjat per veure el nom de l'estació.

Feu clic per veure les observacions i els pronòstics meteorològics.

Per canviar el mapa: feu clic els botons verds amb una creu de color negre per apropar; al botó verd amb un guió per allunyar la imatge; o en les fletxes verdes per a mapes adjacents.


METAR-TAF: